Time;durP1;ratioP1;P1;durP2;ratioP2;P2;SDS_P1;SDS_P2;PMS_P1;PMS_P2;Temp;Humidity;BMP_temperature;BMP_pressure;BME280_temperature;BME280_humidity;BME280_pressure;Samples;Min_cycle;Max_cycle;Signal;HPM_P1;HPM_P2
2022/03/15 00:02:03;;;;;;;6.53;3.35;;;14.70;57.60;;;;;;5055064;28;20119;-73
2022/03/15 00:04:29;;;;;;;10.20;4.82;;;14.60;57.70;;;;;;5075447;28;20045;-73
2022/03/15 00:06:56;;;;;;;9.73;4.38;;;14.60;57.70;;;;;;5060583;28;20140;-73
2022/03/15 00:09:22;;;;;;;11.70;5.03;;;14.60;57.70;;;;;;5060243;28;20135;-75
2022/03/15 00:11:47;;;;;;;10.65;5.22;;;14.60;57.70;;;;;;5078397;28;20139;-74
2022/03/15 00:14:14;;;;;;;9.27;4.18;;;14.60;57.70;;;;;;5078377;28;20042;-73
2022/03/15 00:16:41;;;;;;;11.45;4.57;;;14.60;57.80;;;;;;5078061;28;20048;-73
2022/03/15 00:19:07;;;;;;;9.88;3.60;;;14.50;57.90;;;;;;5078042;28;20084;-75
2022/03/15 00:21:33;;;;;;;7.68;3.70;;;14.50;57.90;;;;;;5060578;28;20056;-73
2022/03/15 00:23:59;;;;;;;8.93;4.38;;;14.50;57.90;;;;;;5077770;28;20352;-75
2022/03/15 00:26:28;;;;;;;10.80;4.60;;;14.50;57.90;;;;;;5043819;28;20452;-74
2022/03/15 00:28:53;;;;;;;9.75;4.18;;;14.50;58.10;;;;;;5077754;28;20060;-74
2022/03/15 00:31:19;;;;;;;12.82;4.82;;;14.50;58.10;;;;;;5077607;28;20048;-73
2022/03/15 00:33:45;;;;;;;10.95;4.28;;;14.50;58.20;;;;;;5060264;28;20053;-75
2022/03/15 00:36:12;;;;;;;10.18;4.68;;;14.50;58.20;;;;;;5077494;28;20076;-73
2022/03/15 00:38:41;;;;;;;8.68;4.43;;;14.50;58.10;;;;;;5060286;28;20060;-75
2022/03/15 00:41:08;;;;;;;10.13;4.30;;;14.50;58.10;;;;;;5077890;28;20165;-72
2022/03/15 00:43:34;;;;;;;11.43;4.78;;;14.50;58.10;;;;;;5077369;28;20471;-74
2022/03/15 00:46:00;;;;;;;8.20;3.65;;;14.50;58.10;;;;;;5077372;28;20122;-75
2022/03/15 00:48:26;;;;;;;11.52;4.82;;;14.50;58.20;;;;;;5077627;28;20036;-73
2022/03/15 00:50:52;;;;;;;10.15;4.45;;;14.40;58.20;;;;;;5077196;28;20044;-73
2022/03/15 00:53:18;;;;;;;10.40;4.45;;;14.40;58.10;;;;;;5077379;28;20143;-74
2022/03/15 00:55:44;;;;;;;10.93;4.25;;;14.40;58.10;;;;;;5077264;28;20087;-73
2022/03/15 00:58:10;;;;;;;9.68;3.92;;;14.40;58.00;;;;;;5059767;28;20044;-75
2022/03/15 01:00:36;;;;;;;9.10;3.90;;;14.40;57.90;;;;;;5077342;28;20048;-74
2022/03/15 01:03:05;;;;;;;8.48;4.57;;;14.40;58.10;;;;;;5077188;28;20059;-75
2022/03/15 01:05:32;;;;;;;10.10;4.18;;;14.40;58.10;;;;;;5076963;28;20053;-73
2022/03/15 01:07:57;;;;;;;9.27;4.22;;;14.40;58.00;;;;;;5076690;28;20483;-73
2022/03/15 01:10:23;;;;;;;9.57;4.10;;;14.40;58.10;;;;;;5076991;28;20044;-75
2022/03/15 01:12:49;;;;;;;9.88;4.25;;;14.30;58.10;;;;;;5076879;28;20040;-75
2022/03/15 01:15:15;;;;;;;7.43;4.03;;;14.30;58.10;;;;;;5077177;28;20084;-75
2022/03/15 01:17:41;;;;;;;10.75;4.65;;;14.30;58.20;;;;;;5077093;28;20375;-74
2022/03/15 01:20:08;;;;;;;9.93;4.28;;;14.30;58.20;;;;;;5076513;28;20047;-76
2022/03/15 01:22:34;;;;;;;9.25;3.75;;;14.30;58.20;;;;;;5058959;28;20075;-74
2022/03/15 01:25:00;;;;;;;7.35;4.25;;;14.30;58.20;;;;;;5042630;28;20048;-73
2022/03/15 01:27:26;;;;;;;9.88;4.35;;;14.30;58.20;;;;;;5059370;28;20051;-76
2022/03/15 01:29:52;;;;;;;9.40;4.40;;;14.30;58.10;;;;;;5059115;28;20444;-74
2022/03/15 01:32:19;;;;;;;8.93;3.97;;;14.30;58.20;;;;;;5076607;28;20114;-73
2022/03/15 01:34:44;;;;;;;10.77;4.03;;;14.30;58.20;;;;;;5076316;28;20131;-75
2022/03/15 01:37:10;;;;;;;8.65;4.10;;;14.20;58.10;;;;;;5059199;28;20124;-75
2022/03/15 01:39:37;;;;;;;8.90;4.55;;;14.20;58.20;;;;;;5059298;28;20063;-75
2022/03/15 01:42:03;;;;;;;10.02;4.55;;;14.20;58.20;;;;;;5059098;28;20060;-74
2022/03/15 01:44:33;;;;;;;12.30;5.03;;;14.20;58.30;;;;;;5076253;28;20052;-75
2022/03/15 01:46:59;;;;;;;9.88;4.45;;;14.10;58.20;;;;;;5058922;28;20059;-74
2022/03/15 01:49:25;;;;;;;8.40;4.07;;;14.10;58.40;;;;;;5075859;28;20044;-73
2022/03/15 01:51:51;;;;;;;8.48;4.30;;;14.10;58.40;;;;;;5076350;28;20055;-75
2022/03/15 01:54:17;;;;;;;10.45;4.13;;;14.10;58.50;;;;;;5076181;28;20059;-75
2022/03/15 01:56:43;;;;;;;10.20;4.53;;;14.10;58.40;;;;;;5076064;28;20048;-75
2022/03/15 01:59:14;;;;;;;8.65;4.22;;;14.10;58.50;;;;;;5058512;28;20385;-72
2022/03/15 02:01:41;;;;;;;10.80;4.15;;;14.10;58.50;;;;;;5076713;28;20052;-73
2022/03/15 02:04:11;;;;;;;9.18;4.28;;;14.10;58.60;;;;;;5058733;28;20048;-72
2022/03/15 02:06:38;;;;;;;12.57;4.75;;;14.10;58.70;;;;;;5076209;28;20057;-75
2022/03/15 02:09:12;;;;;;;8.63;4.32;;;14.10;58.70;;;;;;5075951;28;20056;-74
2022/03/15 02:11:38;;;;;;;;;;;14.00;58.70;;;;;;5041079;28;20053;-75
2022/03/15 02:14:04;;;;;;;13.32;4.80;;;14.00;58.60;;;;;;5075819;28;20232;-74
2022/03/15 02:16:32;;;;;;;9.98;4.18;;;14.00;58.70;;;;;;5058357;28;20048;-76
2022/03/15 02:18:58;;;;;;;7.88;3.95;;;14.00;58.70;;;;;;5075624;28;20087;-73
2022/03/15 02:21:25;;;;;;;12.48;4.88;;;14.00;58.70;;;;;;5057960;28;20047;-74
2022/03/15 02:23:52;;;;;;;8.90;4.13;;;14.00;59.30;;;;;;5075823;28;20036;-74
2022/03/15 02:26:17;;;;;;;8.48;3.45;;;14.00;58.80;;;;;;5057949;28;20122;-73
2022/03/15 02:28:46;;;;;;;7.72;3.85;;;14.00;58.80;;;;;;5075677;28;20044;-74
2022/03/15 02:31:12;;;;;;;10.25;4.10;;;13.90;58.80;;;;;;5058730;28;20416;-76
2022/03/15 02:33:38;;;;;;;8.70;4.28;;;14.00;59.40;;;;;;5074947;28;20048;-74
2022/03/15 02:36:04;;;;;;;9.55;4.22;;;14.00;58.90;;;;;;5075381;28;20056;-74
2022/03/15 02:38:29;;;;;;;8.52;4.10;;;13.90;58.80;;;;;;5075666;28;20044;-74
2022/03/15 02:40:56;;;;;;;9.35;4.38;;;13.90;58.90;;;;;;5072312;28;20052;-75
2022/03/15 02:43:22;;;;;;;9.80;4.68;;;13.90;58.90;;;;;;5057585;28;20087;-73
2022/03/15 02:45:48;;;;;;;9.32;3.90;;;13.90;58.80;;;;;;5074881;28;20094;-75
2022/03/15 02:48:13;;;;;;;10.20;4.55;;;13.90;58.90;;;;;;5057936;28;20044;-74
2022/03/15 02:50:39;;;;;;;8.23;3.97;;;13.90;59.00;;;;;;5075147;28;20040;-73
2022/03/15 02:53:05;;;;;;;9.23;4.15;;;13.90;59.00;;;;;;5075363;28;20045;-75
2022/03/15 02:55:32;;;;;;;7.45;3.80;;;13.90;58.90;;;;;;5075314;28;20044;-75
2022/03/15 02:58:00;;;;;;;6.82;3.58;;;13.90;58.90;;;;;;5075061;28;20044;-74
2022/03/15 03:00:27;;;;;;;10.60;4.18;;;13.90;59.00;;;;;;5057556;28;20506;-73
2022/03/15 03:02:53;;;;;;;7.97;4.20;;;13.80;59.00;;;;;;5074872;28;20067;-76
2022/03/15 03:05:19;;;;;;;8.27;4.05;;;13.90;59.10;;;;;;5075204;28;20118;-75
2022/03/15 03:07:45;;;;;;;8.65;4.45;;;13.80;59.10;;;;;;5075671;28;20473;-74
2022/03/15 03:10:12;;;;;;;9.65;4.70;;;13.80;59.10;;;;;;5074978;28;20149;-75
2022/03/15 03:12:41;;;;;;;12.07;4.55;;;13.80;59.20;;;;;;5075254;28;20106;-75
2022/03/15 03:15:11;;;;;;;8.38;4.28;;;13.90;59.20;;;;;;5057155;28;20052;-72
2022/03/15 03:17:40;;;;;;;8.57;4.15;;;13.90;59.20;;;;;;5074957;28;20139;-75
2022/03/15 03:20:08;;;;;;;11.02;4.40;;;13.80;59.10;;;;;;5074819;28;20091;-75
2022/03/15 03:22:35;;;;;;;10.98;4.85;;;13.80;59.10;;;;;;5057602;28;20059;-76
2022/03/15 03:25:00;;;;;;;7.57;3.97;;;13.80;59.10;;;;;;5075557;28;20045;-75
2022/03/15 03:27:26;;;;;;;7.40;3.45;;;13.80;59.10;;;;;;5075062;28;20045;-74
2022/03/15 03:29:52;;;;;;;11.48;4.43;;;13.80;59.30;;;;;;5074683;28;20110;-74
2022/03/15 03:32:18;;;;;;;10.82;4.30;;;13.80;59.30;;;;;;5074720;28;20455;-76
2022/03/15 03:34:43;;;;;;;9.07;4.05;;;13.80;59.20;;;;;;5074908;28;20406;-75
2022/03/15 03:37:09;;;;;;;9.55;4.38;;;13.80;59.20;;;;;;5058816;28;20055;-76
2022/03/15 03:39:35;;;;;;;9.82;4.10;;;13.80;59.20;;;;;;5078760;28;20055;-76
2022/03/15 03:42:01;;;;;;;9.02;4.35;;;13.80;59.20;;;;;;5061597;28;20092;-75
2022/03/15 03:44:27;;;;;;;7.80;4.10;;;13.80;59.20;;;;;;5078446;28;20052;-74
2022/03/15 03:46:53;;;;;;;8.48;4.18;;;13.80;59.30;;;;;;5078747;28;20060;-75
2022/03/15 03:49:18;;;;;;;9.15;4.28;;;13.80;59.30;;;;;;5079049;28;20040;-75
2022/03/15 03:51:44;;;;;;;9.00;4.00;;;13.80;59.30;;;;;;5078834;28;20049;-73
2022/03/15 03:54:10;;;;;;;7.95;4.13;;;13.80;59.30;;;;;;5078434;28;20055;-74
2022/03/15 03:56:36;;;;;;;7.53;3.88;;;13.80;59.30;;;;;;5078639;28;20048;-75
2022/03/15 03:59:01;;;;;;;9.38;4.47;;;13.70;59.30;;;;;;5075036;28;20514;-76
2022/03/15 04:01:27;;;;;;;10.93;4.05;;;13.70;59.30;;;;;;5078202;28;20052;-76
2022/03/15 04:03:53;;;;;;;10.65;4.30;;;13.70;59.30;;;;;;5061300;28;20114;-74
2022/03/15 04:06:19;;;;;;;8.57;4.32;;;13.80;59.50;;;;;;5078435;28;20396;-75
2022/03/15 04:08:46;;;;;;;9.10;4.68;;;13.70;59.40;;;;;;5078405;28;20336;-73
2022/03/15 04:11:11;;;;;;;6.80;4.15;;;13.70;59.40;;;;;;5078033;28;20090;-75
2022/03/15 04:13:40;;;;;;;11.27;4.20;;;13.80;59.40;;;;;;5078063;28;20064;-75
2022/03/15 04:16:06;;;;;;;6.63;4.03;;;13.80;59.40;;;;;;5078145;28;20059;-73
2022/03/15 04:18:32;;;;;;;11.98;4.57;;;13.80;59.30;;;;;;5078250;28;20363;-74
2022/03/15 04:20:58;;;;;;;9.70;4.72;;;13.80;59.30;;;;;;5060495;28;20418;-73
2022/03/15 04:23:23;;;;;;;10.55;4.75;;;13.80;59.40;;;;;;5060294;28;20041;-76
2022/03/15 04:25:51;;;;;;;8.52;4.53;;;13.70;59.40;;;;;;5077578;28;20060;-75
2022/03/15 04:28:17;;;;;;;10.10;4.88;;;13.70;59.40;;;;;;5060885;28;20063;-72
2022/03/15 04:30:42;;;;;;;8.75;4.72;;;13.70;59.40;;;;;;5077749;28;20052;-74
2022/03/15 04:33:08;;;;;;;11.00;4.28;;;13.70;59.30;;;;;;5060025;28;20040;-74
2022/03/15 04:35:34;;;;;;;8.75;3.95;;;13.70;59.40;;;;;;5060321;28;20075;-75
2022/03/15 04:38:01;;;;;;;11.65;5.38;;;13.80;59.40;;;;;;5077728;28;20040;-72
2022/03/15 04:40:26;;;;;;;8.35;4.38;;;13.80;59.40;;;;;;5077270;28;20067;-73
2022/03/15 04:42:54;;;;;;;6.72;4.60;;;13.80;59.50;;;;;;5077318;28;20048;-72
2022/03/15 04:45:20;;;;;;;9.52;4.55;;;13.70;59.50;;;;;;5077740;28;20114;-73
2022/03/15 04:47:46;;;;;;;7.57;4.53;;;13.70;59.40;;;;;;5059596;28;20455;-73
2022/03/15 04:50:12;;;;;;;8.65;4.15;;;13.70;59.40;;;;;;5059745;28;20056;-74
2022/03/15 04:52:38;;;;;;;11.85;5.28;;;13.70;59.50;;;;;;5077531;28;20074;-73
2022/03/15 04:55:05;;;;;;;10.60;5.63;;;13.70;59.50;;;;;;5077036;28;20045;-74
2022/03/15 04:57:31;;;;;;;10.82;4.70;;;13.70;59.50;;;;;;5077066;28;20044;-74
2022/03/15 04:59:57;;;;;;;9.60;4.65;;;13.70;59.40;;;;;;5077165;28;20036;-73
2022/03/15 05:02:23;;;;;;;11.05;4.65;;;13.70;59.50;;;;;;5059958;28;20101;-73
2022/03/15 05:04:51;;;;;;;8.77;4.28;;;13.70;59.60;;;;;;5060400;28;20055;-72
2022/03/15 05:07:17;;;;;;;8.70;4.85;;;13.70;59.50;;;;;;5076918;28;20123;-76
2022/03/15 05:12:28;;;;;;;9.80;4.95;;;13.70;59.50;;;;;;5076603;28;20378;-75
2022/03/15 05:14:54;;;;;;;8.75;4.97;;;13.70;59.50;;;;;;5076907;28;20056;-74
2022/03/15 05:17:20;;;;;;;11.27;4.38;;;13.70;59.50;;;;;;5077035;28;20045;-75
2022/03/15 05:19:50;;;;;;;9.82;4.90;;;13.70;59.60;;;;;;5059350;28;20363;-74
2022/03/15 05:22:16;;;;;;;11.48;5.72;;;13.70;59.50;;;;;;5076319;28;20059;-75
2022/03/15 05:24:41;;;;;;;9.13;4.82;;;13.70;59.60;;;;;;5077061;28;20048;-74
2022/03/15 05:27:09;;;;;;;9.27;5.35;;;13.70;59.60;;;;;;5076779;28;20045;-74
2022/03/15 05:29:35;;;;;;;11.07;4.80;;;13.70;59.60;;;;;;5056592;28;20127;-72
2022/03/15 05:32:01;;;;;;;8.77;5.10;;;13.70;59.60;;;;;;5060047;28;20131;-74
2022/03/15 05:34:26;;;;;;;10.55;4.93;;;13.70;59.60;;;;;;5071320;28;20147;-74
2022/03/15 05:36:52;;;;;;;8.88;4.40;;;13.70;59.70;;;;;;5074261;28;20083;-73
2022/03/15 05:39:18;;;;;;;9.13;4.97;;;13.70;59.70;;;;;;5075759;28;20483;-75
2022/03/15 05:41:46;;;;;;;9.65;4.07;;;13.70;59.90;;;;;;5058844;28;20542;-80
2022/03/15 05:44:13;;;;;;;13.60;6.30;;;13.80;60.00;;;;;;5054155;28;20053;-79
2022/03/15 05:46:39;;;;;;;11.00;5.45;;;13.80;59.60;;;;;;5057487;28;20041;-83
2022/03/15 05:49:05;;;;;;;13.00;7.40;;;13.80;59.10;;;;;;5042702;28;20033;-78
2022/03/15 05:51:31;;;;;;;19.98;8.00;;;13.90;58.10;;;;;;5059500;28;20095;-78
2022/03/15 05:54:30;;;;;;;14.23;7.72;;;13.80;57.80;;;;;;5072798;28;20593;-82
2022/03/15 05:57:05;;;;;;;15.02;8.07;;;13.70;58.00;;;;;;5055837;28;20088;-80
2022/03/15 05:59:31;;;;;;;11.40;6.70;;;13.70;58.10;;;;;;5072531;28;20111;-79
2022/03/15 06:01:57;;;;;;;14.52;7.88;;;13.70;58.20;;;;;;5057622;28;20195;-75
2022/03/15 06:04:26;;;;;;;13.57;7.40;;;13.70;58.40;;;;;;5069433;28;20391;-77
2022/03/15 06:06:57;;;;;;;16.38;6.65;;;13.80;58.90;;;;;;5072996;28;20448;-72
2022/03/15 06:09:24;;;;;;;10.80;6.45;;;13.80;59.00;;;;;;5073575;28;20047;-77
2022/03/15 06:11:51;;;;;;;13.23;5.93;;;13.80;58.70;;;;;;5071986;28;20103;-75
2022/03/15 06:14:19;;;;;;;14.10;5.40;;;14.10;58.70;;;;;;5075527;28;20434;-75
2022/03/15 06:16:45;;;;;;;11.65;5.10;;;14.30;58.60;;;;;;5075427;28;20055;-74
2022/03/15 06:19:11;;;;;;;11.77;4.45;;;14.70;58.30;;;;;;5075694;28;20036;-75
2022/03/15 06:21:37;;;;;;;14.13;4.80;;;14.90;58.20;;;;;;5040119;28;20060;-73
2022/03/15 06:24:03;;;;;;;11.35;5.43;;;15.10;58.00;;;;;;5051006;28;20363;-74
2022/03/15 06:26:29;;;;;;;9.27;4.53;;;15.30;57.90;;;;;;5071542;28;20051;-75
2022/03/15 06:28:58;;;;;;;11.50;3.90;;;15.50;57.90;;;;;;5058064;28;20052;-75
2022/03/15 06:31:24;;;;;;;15.98;6.10;;;15.60;58.10;;;;;;5075281;28;20055;-73
2022/03/15 06:33:50;;;;;;;10.95;4.05;;;15.50;57.90;;;;;;5057977;28;20364;-76
2022/03/15 06:36:16;;;;;;;9.10;4.10;;;15.60;58.70;;;;;;5075332;28;20046;-77
2022/03/15 06:38:42;;;;;;;13.02;4.53;;;15.60;59.00;;;;;;5074864;28;20119;-75
2022/03/15 06:41:12;;;;;;;14.23;4.50;;;15.70;59.50;;;;;;5057200;28;20120;-77
2022/03/15 06:43:40;;;;;;;15.35;4.65;;;15.80;60.00;;;;;;5041195;28;20367;-76
2022/03/15 06:46:08;;;;;;;10.40;4.05;;;15.80;60.30;;;;;;5040199;28;20052;-79
2022/03/15 06:48:35;;;;;;;10.30;3.67;;;15.90;60.50;;;;;;5060126;28;20123;-77
2022/03/15 06:51:02;;;;;;;10.65;3.60;;;16.00;60.80;;;;;;5095550;28;20075;-78
2022/03/15 06:53:29;;;;;;;16.45;3.88;;;16.00;61.00;;;;;;5062804;28;20084;-75
2022/03/15 06:55:55;;;;;;;4.95;3.33;;;16.00;61.00;;;;;;5051056;28;20503;-76
2022/03/15 06:58:21;;;;;;;11.00;3.83;;;16.10;61.10;;;;;;5055209;28;20408;-76
2022/03/15 07:00:48;;;;;;;8.85;3.53;;;16.10;61.10;;;;;;5054989;28;20522;-72
2022/03/15 07:03:16;;;;;;;11.45;4.10;;;16.10;60.90;;;;;;5037427;28;20103;-77
2022/03/15 07:05:44;;;;;;;10.40;3.88;;;16.20;60.90;;;;;;5055175;28;20154;-76
2022/03/15 07:08:11;;;;;;;17.00;4.55;;;16.20;60.70;;;;;;5070050;28;20052;-73
2022/03/15 07:10:36;;;;;;;20.27;4.80;;;16.20;60.50;;;;;;5040171;28;20118;-77
2022/03/15 07:13:02;;;;;;;13.35;4.30;;;16.20;60.70;;;;;;5074949;28;20033;-77
2022/03/15 07:15:28;;;;;;;12.25;3.80;;;16.20;60.30;;;;;;5074850;28;20064;-75
2022/03/15 07:17:56;;;;;;;13.13;4.07;;;16.20;60.20;;;;;;5074174;28;20345;-76
2022/03/15 07:20:23;;;;;;;18.45;4.50;;;16.20;60.10;;;;;;5057076;28;20040;-75
2022/03/15 07:22:50;;;;;;;16.58;4.65;;;16.10;60.00;;;;;;5057240;28;20048;-76
2022/03/15 07:25:16;;;;;;;11.82;3.63;;;16.10;60.00;;;;;;5057553;28;20060;-76
2022/03/15 07:27:43;;;;;;;10.80;4.05;;;16.00;59.90;;;;;;5057324;28;20053;-75
2022/03/15 07:30:10;;;;;;;13.55;4.47;;;16.00;59.90;;;;;;5074526;28;20088;-75
2022/03/15 07:32:35;;;;;;;10.77;4.18;;;16.00;59.80;;;;;;5075466;28;20064;-80
2022/03/15 07:35:02;;;;;;;10.45;4.22;;;16.00;59.80;;;;;;5068770;28;20046;-76
2022/03/15 07:37:27;;;;;;;11.90;3.90;;;15.90;59.70;;;;;;5067091;28;20040;-74
2022/03/15 07:39:53;;;;;;;10.98;4.82;;;15.90;59.70;;;;;;5077906;28;20127;-77
2022/03/15 07:42:24;;;;;;;11.55;4.88;;;15.80;58.90;;;;;;5081622;28;20063;-76
2022/03/15 07:44:50;;;;;;;8.63;4.30;;;15.60;59.70;;;;;;5064277;28;20065;-75
2022/03/15 07:47:16;;;;;;;9.63;4.18;;;15.70;60.30;;;;;;5054552;28;20467;-76
2022/03/15 07:49:42;;;;;;;11.30;4.40;;;15.70;60.50;;;;;;5046668;28;20041;-74
2022/03/15 07:52:09;;;;;;;8.23;4.43;;;15.80;60.70;;;;;;5054924;28;20055;-75
2022/03/15 07:54:35;;;;;;;11.55;3.95;;;15.80;60.80;;;;;;5085788;28;20466;-76
2022/03/15 07:57:01;;;;;;;10.60;4.10;;;15.80;60.80;;;;;;5094663;28;20047;-74
2022/03/15 07:59:28;;;;;;;9.68;4.40;;;15.80;60.90;;;;;;5091702;28;20055;-74
2022/03/15 08:01:56;;;;;;;8.05;3.90;;;15.80;60.80;;;;;;5076098;28;20059;-74
2022/03/15 08:04:22;;;;;;;11.73;4.00;;;15.90;61.00;;;;;;5054054;28;20048;-75
2022/03/15 08:06:48;;;;;;;12.02;3.92;;;15.90;61.00;;;;;;5055415;28;20052;-75
2022/03/15 08:09:14;;;;;;;9.88;4.47;;;15.90;60.80;;;;;;5068556;28;20348;-78
2022/03/15 08:11:41;;;;;;;11.15;4.30;;;15.90;60.40;;;;;;5073701;28;20045;-75
2022/03/15 08:14:09;;;;;;;10.35;4.68;;;15.90;60.20;;;;;;5069791;28;20086;-77
2022/03/15 08:16:35;;;;;;;10.18;5.00;;;15.90;60.70;;;;;;5068683;28;20056;-74
2022/03/15 08:19:01;;;;;;;12.65;3.55;;;15.90;60.10;;;;;;5042148;28;20041;-75
2022/03/15 08:21:27;;;;;;;8.35;3.75;;;16.00;60.20;;;;;;5051459;28;20056;-76
2022/03/15 08:23:53;;;;;;;7.75;3.40;;;15.90;60.40;;;;;;5083700;28;20044;-77
2022/03/15 08:26:19;;;;;;;8.88;4.30;;;16.00;60.50;;;;;;5067214;28;20082;-76
2022/03/15 08:28:47;;;;;;;8.77;3.95;;;16.00;60.30;;;;;;5077857;28;20044;-76
2022/03/15 08:31:12;;;;;;;8.82;3.67;;;16.00;60.10;;;;;;5060471;28;20049;-74
2022/03/15 08:33:38;;;;;;;12.60;4.80;;;16.00;60.00;;;;;;5077904;28;20474;-78
2022/03/15 08:36:05;;;;;;;10.98;4.03;;;16.10;59.70;;;;;;5060385;28;20126;-75
2022/03/15 08:38:31;;;;;;;12.38;4.63;;;16.10;59.50;;;;;;5085116;28;20043;-77
2022/03/15 08:40:57;;;;;;;6.95;3.80;;;16.10;59.30;;;;;;5097411;28;20090;-78
2022/03/15 08:43:24;;;;;;;8.23;4.63;;;16.20;59.20;;;;;;5074719;28;20045;-76
2022/03/15 08:45:50;;;;;;;9.07;4.55;;;16.10;58.90;;;;;;5061143;28;20058;-79
2022/03/15 08:48:15;;;;;;;13.55;4.50;;;16.10;58.70;;;;;;5065325;28;20053;-75
2022/03/15 08:50:41;;;;;;;7.22;3.60;;;16.10;58.50;;;;;;5058576;28;20044;-76
2022/03/15 08:53:07;;;;;;;8.32;4.20;;;16.10;58.50;;;;;;5077135;28;20048;-74
2022/03/15 08:55:34;;;;;;;9.35;4.20;;;16.10;58.50;;;;;;5068358;28;20128;-75
2022/03/15 08:58:01;;;;;;;7.88;3.78;;;16.10;58.50;;;;;;5057385;28;20053;-77
2022/03/15 09:00:26;;;;;;;8.60;4.50;;;16.00;58.10;;;;;;5046989;28;20037;-76
2022/03/15 09:02:52;;;;;;;12.23;4.38;;;15.90;58.30;;;;;;5057029;28;20115;-75
2022/03/15 09:05:19;;;;;;;9.45;4.18;;;15.90;58.30;;;;;;5056701;28;20139;-78
2022/03/15 09:07:51;;;;;;;13.40;4.05;;;15.90;58.30;;;;;;5056760;28;20049;-72
2022/03/15 09:10:18;;;;;;;8.52;4.10;;;15.80;58.30;;;;;;5057177;28;20045;-78
2022/03/15 09:12:44;;;;;;;8.98;4.40;;;15.90;58.80;;;;;;5056592;28;20037;-77
2022/03/15 09:15:10;;;;;;;11.65;7.30;;;15.80;58.70;;;;;;5057219;28;20049;-78
2022/03/15 09:17:36;;;;;;;16.85;9.75;;;15.80;58.30;;;;;;5039590;28;20118;-77
2022/03/15 09:20:03;;;;;;;14.63;9.27;;;15.90;58.00;;;;;;5039167;28;20135;-77
2022/03/15 09:22:28;;;;;;;19.70;10.00;;;15.90;57.60;;;;;;5023007;28;20110;-75
2022/03/15 09:24:54;;;;;;;14.88;8.20;;;15.90;57.30;;;;;;5056842;28;20049;-76
2022/03/15 09:27:20;;;;;;;16.60;7.93;;;15.80;57.20;;;;;;5075261;28;20049;-77
2022/03/15 09:29:45;;;;;;;13.13;8.00;;;15.80;57.30;;;;;;5059335;28;20053;-77
2022/03/15 09:32:12;;;;;;;14.35;8.15;;;15.80;57.40;;;;;;5076896;28;20134;-76
2022/03/15 09:34:38;;;;;;;14.43;8.18;;;15.80;57.70;;;;;;5076382;28;20080;-75
2022/03/15 09:37:05;;;;;;;14.63;7.93;;;15.80;58.00;;;;;;5076704;28;20468;-75
2022/03/15 09:39:33;;;;;;;14.60;8.70;;;15.70;57.70;;;;;;5076925;28;20041;-77
2022/03/15 09:41:59;;;;;;;26.65;11.80;;;15.60;58.00;;;;;;5056219;28;20083;-76
2022/03/15 09:44:28;;;;;;;21.17;14.63;;;15.60;58.10;;;;;;5075474;28;20048;-75
2022/03/15 09:46:59;;;;;;;25.00;17.25;;;15.60;57.10;;;;;;5075750;28;20100;-77
2022/03/15 09:49:26;;;;;;;26.35;17.48;;;15.50;56.90;;;;;;5058530;28;20048;-77
2022/03/15 09:51:56;;;;;;;27.25;18.40;;;15.40;57.00;;;;;;5058040;28;20121;-76
2022/03/15 09:54:24;;;;;;;27.67;18.00;;;15.20;57.30;;;;;;5077101;28;20371;-74
2022/03/15 09:56:51;;;;;;;30.08;17.95;;;15.10;57.80;;;;;;5053863;28;20053;-75
2022/03/15 09:59:19;;;;;;;26.00;16.67;;;15.00;58.00;;;;;;5057059;28;20040;-74
2022/03/15 10:01:50;;;;;;;24.42;16.55;;;14.90;58.80;;;;;;5074071;28;20375;-74
2022/03/15 10:04:20;;;;;;;25.55;16.95;;;14.90;59.20;;;;;;5060130;28;20487;-75
2022/03/15 10:06:47;;;;;;;22.90;16.00;;;15.00;59.50;;;;;;5075210;28;20048;-73
2022/03/15 10:09:13;;;;;;;28.40;16.65;;;15.00;59.50;;;;;;5075836;28;20453;-76
2022/03/15 10:11:39;;;;;;;22.77;15.95;;;15.10;59.50;;;;;;5058493;28;20452;-75
2022/03/15 10:14:06;;;;;;;24.75;16.83;;;15.10;59.50;;;;;;5075554;28;20117;-74
2022/03/15 10:16:40;;;;;;;23.98;16.40;;;15.10;59.50;;;;;;5076117;28;20364;-76
2022/03/15 10:19:08;;;;;;;24.27;15.82;;;15.10;59.60;;;;;;5076423;28;20059;-74
2022/03/15 10:21:40;;;;;;;24.25;17.05;;;15.10;59.60;;;;;;5059040;28;20049;-76
2022/03/15 10:24:09;;;;;;;26.58;15.90;;;15.20;59.70;;;;;;5075942;28;20051;-74
2022/03/15 10:26:39;;;;;;;22.05;15.25;;;15.20;59.70;;;;;;5057869;28;20052;-77
2022/03/15 10:29:06;;;;;;;23.42;14.60;;;15.20;59.80;;;;;;5041357;28;20060;-75
2022/03/15 10:31:32;;;;;;;21.02;13.45;;;15.20;59.80;;;;;;5075868;28;20044;-74
2022/03/15 10:34:01;;;;;;;21.27;14.20;;;15.20;59.80;;;;;;5074774;28;20059;-76
2022/03/15 10:36:36;;;;;;;21.00;13.45;;;15.20;59.80;;;;;;5076211;28;20196;-74
2022/03/15 10:39:02;;;;;;;21.08;13.63;;;15.20;59.70;;;;;;5057739;28;20075;-74
2022/03/15 10:41:28;;;;;;;22.20;13.80;;;15.20;59.80;;;;;;5074873;28;20478;-74
2022/03/15 10:43:54;;;;;;;17.63;12.55;;;15.20;59.80;;;;;;5057511;28;20052;-75
2022/03/15 10:46:25;;;;;;;19.77;11.68;;;15.20;59.80;;;;;;5071566;28;20052;-75
2022/03/15 10:49:03;;;;;;;15.98;12.60;;;15.20;59.70;;;;;;5075594;28;20044;-74
2022/03/15 10:51:30;;;;;;;17.05;12.75;;;15.20;59.80;;;;;;5075516;28;20060;-74
2022/03/15 10:54:02;;;;;;;18.00;12.00;;;15.20;59.90;;;;;;5057739;28;20091;-75
2022/03/15 10:56:28;;;;;;;16.88;11.40;;;15.20;59.90;;;;;;5072761;28;20056;-74
2022/03/15 10:59:03;;;;;;;20.60;12.80;;;15.20;59.90;;;;;;5075509;28;20067;-77
2022/03/15 11:01:39;;;;;;;16.67;11.45;;;15.20;60.00;;;;;;5057567;28;20044;-75
2022/03/15 11:04:09;;;;;;;19.80;11.98;;;15.20;60.00;;;;;;5062656;28;20362;-76
2022/03/15 11:06:45;;;;;;;16.58;10.70;;;15.20;60.00;;;;;;5054946;28;20045;-75
2022/03/15 11:09:21;;;;;;;22.30;11.43;;;15.20;60.00;;;;;;5061285;28;20407;-74
2022/03/15 11:12:05;;;;;;;18.80;10.82;;;15.20;59.90;;;;;;5056478;28;20087;-73
2022/03/15 11:14:41;;;;;;;18.73;10.07;;;15.20;60.00;;;;;;5030528;28;20055;-76
2022/03/15 11:17:08;;;;;;;19.40;11.45;;;15.20;60.10;;;;;;5043766;28;20124;-78
2022/03/15 11:19:38;;;;;;;19.98;10.90;;;15.30;60.10;;;;;;5054858;28;20055;-78
2022/03/15 11:22:05;;;;;;;17.70;11.75;;;15.20;59.90;;;;;;5036364;28;20128;-78
2022/03/15 11:24:36;;;;;;;15.18;11.43;;;15.20;59.90;;;;;;5054395;28;20420;-77
2022/03/15 11:27:05;;;;;;;17.00;11.13;;;15.20;60.40;;;;;;5019791;28;20052;-77
2022/03/15 11:29:32;;;;;;;15.55;10.50;;;15.20;59.70;;;;;;5036906;28;20037;-77
2022/03/15 11:31:59;;;;;;;15.52;10.27;;;15.20;59.70;;;;;;5055123;28;20396;-77
2022/03/15 11:34:25;;;;;;;14.77;9.85;;;15.20;59.60;;;;;;5054172;28;20080;-77
2022/03/15 11:36:53;;;;;;;14.05;9.55;;;15.20;59.60;;;;;;5054745;28;20059;-76
2022/03/15 11:39:19;;;;;;;13.63;9.55;;;15.20;59.60;;;;;;5036250;28;20118;-77
2022/03/15 11:41:46;;;;;;;16.50;9.93;;;15.20;59.60;;;;;;5054253;28;20064;-76
2022/03/15 11:44:54;;;;;;;15.20;9.90;;;15.20;59.70;;;;;;5066380;28;20033;-71
2022/03/15 11:47:40;;;;;;;15.57;9.07;;;15.20;59.80;;;;;;5047982;28;20470;-70
2022/03/15 11:50:16;;;;;;;14.77;9.25;;;15.20;59.90;;;;;;5071398;28;20044;-73
2022/03/15 11:52:56;;;;;;;12.98;9.05;;;15.20;60.20;;;;;;5063722;28;20049;-76
2022/03/15 11:55:30;;;;;;;15.15;8.45;;;15.30;60.40;;;;;;5066550;28;20072;-75
2022/03/15 11:58:03;;;;;;;12.05;7.45;;;15.40;60.40;;;;;;5075616;28;20049;-72
2022/03/15 12:00:44;;;;;;;10.73;7.10;;;15.50;60.30;;;;;;5078331;28;20044;-69
2022/03/15 12:03:15;;;;;;;10.60;6.70;;;15.60;60.20;;;;;;5078198;28;20045;-70
2022/03/15 12:05:47;;;;;;;12.18;6.30;;;15.70;60.10;;;;;;5078430;28;20182;-71
2022/03/15 12:08:20;;;;;;;14.57;7.00;;;15.80;60.30;;;;;;5059039;28;20059;-77
2022/03/15 12:10:56;;;;;;;12.73;6.97;;;15.90;60.40;;;;;;5093626;28;20080;-72
2022/03/15 12:13:43;;;;;;;14.82;5.68;;;16.00;60.30;;;;;;5072441;28;20061;-73
2022/03/15 12:16:15;;;;;;;20.08;7.13;;;16.10;60.20;;;;;;5040022;28;20057;-76
2022/03/15 12:18:48;;;;;;;17.83;8.52;;;16.20;62.40;;;;;;5058060;28;20052;-76
2022/03/15 12:21:14;;;;;;;21.45;9.88;;;16.30;61.70;;;;;;5061857;28;20072;-76
2022/03/15 12:23:46;;;;;;;20.05;10.25;;;16.30;60.90;;;;;;5057775;28;20055;-75
2022/03/15 12:26:28;;;;;;;17.02;9.52;;;16.20;60.70;;;;;;5058117;28;20044;-75
2022/03/15 12:29:02;;;;;;;21.08;10.25;;;16.20;60.60;;;;;;5063887;28;20052;-77
2022/03/15 12:31:32;;;;;;;;;;;16.20;60.80;;;;;;5040693;28;20095;-75
2022/03/15 12:34:06;;;;;;;21.30;9.85;;;16.20;60.70;;;;;;5076465;28;19920;-76
2022/03/15 12:36:36;;;;;;;21.60;9.65;;;16.20;61.50;;;;;;5060952;28;20052;-76
2022/03/15 12:39:13;;;;;;;22.80;9.23;;;16.20;61.60;;;;;;5077520;28;20127;-75
2022/03/15 12:41:39;;;;;;;20.55;9.85;;;16.20;62.10;;;;;;5076661;28;20052;-77
2022/03/15 12:44:07;;;;;;;16.70;8.05;;;16.20;62.30;;;;;;5077335;28;20440;-76
2022/03/15 12:46:34;;;;;;;14.18;7.95;;;16.20;62.10;;;;;;5059579;28;20044;-76